sensor_id;sensor_type;location;lat;lon;timestamp;P1;durP1;ratioP1;P2;durP2;ratioP2
49840;SDS011;35738;49.890;5.930;2024-01-16T00:02:07;21.80;;;11.03;;
49840;SDS011;35738;49.890;5.930;2024-01-16T00:04:37;23.80;;;12.10;;
49840;SDS011;35738;49.890;5.930;2024-01-16T00:07:04;25.80;;;12.53;;
49840;SDS011;35738;49.890;5.930;2024-01-16T00:09:34;22.73;;;12.87;;
49840;SDS011;35738;49.890;5.930;2024-01-16T00:12:01;25.10;;;12.00;;
49840;SDS011;35738;49.890;5.930;2024-01-16T00:14:29;26.50;;;11.70;;
49840;SDS011;35738;49.890;5.930;2024-01-16T00:16:56;30.50;;;11.93;;
49840;SDS011;35738;49.890;5.930;2024-01-16T00:19:22;22.20;;;10.93;;
49840;SDS011;35738;49.890;5.930;2024-01-16T00:21:49;22.80;;;11.57;;
49840;SDS011;35738;49.890;5.930;2024-01-16T00:24:16;23.53;;;11.40;;
49840;SDS011;35738;49.890;5.930;2024-01-16T00:26:43;28.77;;;11.37;;
49840;SDS011;35738;49.890;5.930;2024-01-16T00:29:09;23.70;;;10.77;;
49840;SDS011;35738;49.890;5.930;2024-01-16T00:31:39;25.33;;;11.47;;
49840;SDS011;35738;49.890;5.930;2024-01-16T00:34:05;21.20;;;11.87;;
49840;SDS011;35738;49.890;5.930;2024-01-16T00:36:32;23.03;;;12.30;;
49840;SDS011;35738;49.890;5.930;2024-01-16T00:38:59;28.53;;;11.50;;
49840;SDS011;35738;49.890;5.930;2024-01-16T00:41:25;28.40;;;11.97;;
49840;SDS011;35738;49.890;5.930;2024-01-16T00:43:53;25.40;;;12.00;;
49840;SDS011;35738;49.890;5.930;2024-01-16T00:46:19;30.23;;;12.07;;
49840;SDS011;35738;49.890;5.930;2024-01-16T00:48:47;30.77;;;11.63;;
49840;SDS011;35738;49.890;5.930;2024-01-16T00:51:14;27.00;;;12.23;;
49840;SDS011;35738;49.890;5.930;2024-01-16T00:53:41;22.53;;;11.90;;
49840;SDS011;35738;49.890;5.930;2024-01-16T00:56:08;25.27;;;12.80;;
49840;SDS011;35738;49.890;5.930;2024-01-16T00:58:35;24.67;;;12.43;;
49840;SDS011;35738;49.890;5.930;2024-01-16T01:01:02;23.70;;;12.47;;
49840;SDS011;35738;49.890;5.930;2024-01-16T01:03:29;32.77;;;12.47;;
49840;SDS011;35738;49.890;5.930;2024-01-16T01:05:56;33.17;;;14.50;;
49840;SDS011;35738;49.890;5.930;2024-01-16T01:08:23;28.60;;;13.80;;
49840;SDS011;35738;49.890;5.930;2024-01-16T01:10:51;25.17;;;13.13;;
49840;SDS011;35738;49.890;5.930;2024-01-16T01:13:18;24.50;;;14.83;;
49840;SDS011;35738;49.890;5.930;2024-01-16T01:15:45;30.63;;;14.53;;
49840;SDS011;35738;49.890;5.930;2024-01-16T01:18:11;28.57;;;14.00;;
49840;SDS011;35738;49.890;5.930;2024-01-16T01:20:38;28.60;;;13.97;;
49840;SDS011;35738;49.890;5.930;2024-01-16T01:23:05;25.63;;;14.73;;
49840;SDS011;35738;49.890;5.930;2024-01-16T01:25:31;30.00;;;14.23;;
49840;SDS011;35738;49.890;5.930;2024-01-16T01:27:58;27.80;;;15.07;;
49840;SDS011;35738;49.890;5.930;2024-01-16T01:30:24;30.17;;;13.77;;
49840;SDS011;35738;49.890;5.930;2024-01-16T01:32:51;29.00;;;14.57;;
49840;SDS011;35738;49.890;5.930;2024-01-16T01:35:17;31.47;;;14.73;;
49840;SDS011;35738;49.890;5.930;2024-01-16T01:37:46;27.20;;;12.90;;
49840;SDS011;35738;49.890;5.930;2024-01-16T01:40:12;30.17;;;13.13;;
49840;SDS011;35738;49.890;5.930;2024-01-16T01:42:42;29.47;;;14.77;;
49840;SDS011;35738;49.890;5.930;2024-01-16T01:45:11;30.73;;;14.57;;
49840;SDS011;35738;49.890;5.930;2024-01-16T01:47:39;32.40;;;14.50;;
49840;SDS011;35738;49.890;5.930;2024-01-16T01:50:09;25.70;;;13.90;;
49840;SDS011;35738;49.890;5.930;2024-01-16T01:52:39;35.13;;;13.73;;
49840;SDS011;35738;49.890;5.930;2024-01-16T01:55:11;27.47;;;13.30;;
49840;SDS011;35738;49.890;5.930;2024-01-16T01:57:40;28.00;;;13.37;;
49840;SDS011;35738;49.890;5.930;2024-01-16T02:00:09;28.93;;;13.77;;
49840;SDS011;35738;49.890;5.930;2024-01-16T02:02:36;32.80;;;13.77;;
49840;SDS011;35738;49.890;5.930;2024-01-16T02:05:03;32.50;;;13.87;;
49840;SDS011;35738;49.890;5.930;2024-01-16T02:07:30;29.53;;;13.87;;
49840;SDS011;35738;49.890;5.930;2024-01-16T02:09:57;30.87;;;14.23;;
49840;SDS011;35738;49.890;5.930;2024-01-16T02:12:24;30.00;;;12.77;;
49840;SDS011;35738;49.890;5.930;2024-01-16T02:14:51;27.83;;;13.90;;
49840;SDS011;35738;49.890;5.930;2024-01-16T02:17:17;25.03;;;13.00;;
49840;SDS011;35738;49.890;5.930;2024-01-16T02:19:44;25.50;;;12.50;;
49840;SDS011;35738;49.890;5.930;2024-01-16T02:22:12;34.97;;;13.30;;
49840;SDS011;35738;49.890;5.930;2024-01-16T02:24:43;32.67;;;12.83;;
49840;SDS011;35738;49.890;5.930;2024-01-16T02:27:10;34.93;;;15.27;;
49840;SDS011;35738;49.890;5.930;2024-01-16T02:29:40;30.70;;;13.43;;
49840;SDS011;35738;49.890;5.930;2024-01-16T02:32:10;32.47;;;12.90;;
49840;SDS011;35738;49.890;5.930;2024-01-16T02:34:39;31.20;;;15.20;;
49840;SDS011;35738;49.890;5.930;2024-01-16T02:37:05;31.53;;;14.50;;
49840;SDS011;35738;49.890;5.930;2024-01-16T02:39:32;23.50;;;11.60;;
49840;SDS011;35738;49.890;5.930;2024-01-16T02:41:58;27.90;;;13.80;;
49840;SDS011;35738;49.890;5.930;2024-01-16T02:44:25;30.40;;;12.70;;
49840;SDS011;35738;49.890;5.930;2024-01-16T02:46:51;23.40;;;10.87;;
49840;SDS011;35738;49.890;5.930;2024-01-16T02:49:18;24.60;;;10.10;;
49840;SDS011;35738;49.890;5.930;2024-01-16T02:51:45;19.40;;;9.87;;
49840;SDS011;35738;49.890;5.930;2024-01-16T02:54:11;25.03;;;11.93;;
49840;SDS011;35738;49.890;5.930;2024-01-16T02:56:38;20.60;;;10.53;;
49840;SDS011;35738;49.890;5.930;2024-01-16T02:59:04;20.63;;;9.90;;
49840;SDS011;35738;49.890;5.930;2024-01-16T03:01:31;15.77;;;9.90;;
49840;SDS011;35738;49.890;5.930;2024-01-16T03:03:57;22.80;;;9.67;;
49840;SDS011;35738;49.890;5.930;2024-01-16T03:06:24;21.20;;;8.17;;
49840;SDS011;35738;49.890;5.930;2024-01-16T03:08:51;27.23;;;12.60;;
49840;SDS011;35738;49.890;5.930;2024-01-16T03:11:18;24.03;;;10.77;;
49840;SDS011;35738;49.890;5.930;2024-01-16T03:13:44;19.53;;;10.83;;
49840;SDS011;35738;49.890;5.930;2024-01-16T03:16:11;23.40;;;10.73;;
49840;SDS011;35738;49.890;5.930;2024-01-16T03:18:38;25.50;;;11.20;;
49840;SDS011;35738;49.890;5.930;2024-01-16T03:21:07;22.00;;;10.70;;
49840;SDS011;35738;49.890;5.930;2024-01-16T03:23:34;23.27;;;10.47;;
49840;SDS011;35738;49.890;5.930;2024-01-16T03:26:01;22.03;;;10.30;;
49840;SDS011;35738;49.890;5.930;2024-01-16T03:28:27;21.90;;;9.43;;
49840;SDS011;35738;49.890;5.930;2024-01-16T03:30:54;20.90;;;10.50;;
49840;SDS011;35738;49.890;5.930;2024-01-16T03:33:21;17.93;;;8.77;;
49840;SDS011;35738;49.890;5.930;2024-01-16T03:35:48;16.87;;;8.80;;
49840;SDS011;35738;49.890;5.930;2024-01-16T03:38:15;18.57;;;8.63;;
49840;SDS011;35738;49.890;5.930;2024-01-16T03:40:41;20.60;;;9.10;;
49840;SDS011;35738;49.890;5.930;2024-01-16T03:43:08;18.50;;;8.10;;
49840;SDS011;35738;49.890;5.930;2024-01-16T03:45:34;16.67;;;7.57;;
49840;SDS011;35738;49.890;5.930;2024-01-16T03:48:01;16.07;;;8.40;;
49840;SDS011;35738;49.890;5.930;2024-01-16T03:50:29;18.73;;;8.83;;
49840;SDS011;35738;49.890;5.930;2024-01-16T03:52:56;18.33;;;7.80;;
49840;SDS011;35738;49.890;5.930;2024-01-16T03:55:22;15.67;;;7.40;;
49840;SDS011;35738;49.890;5.930;2024-01-16T03:57:49;18.07;;;8.67;;
49840;SDS011;35738;49.890;5.930;2024-01-16T04:00:17;17.27;;;8.63;;
49840;SDS011;35738;49.890;5.930;2024-01-16T04:02:43;18.37;;;8.77;;
49840;SDS011;35738;49.890;5.930;2024-01-16T04:05:10;27.07;;;10.00;;
49840;SDS011;35738;49.890;5.930;2024-01-16T04:07:37;24.90;;;10.77;;
49840;SDS011;35738;49.890;5.930;2024-01-16T04:10:03;23.33;;;11.93;;
49840;SDS011;35738;49.890;5.930;2024-01-16T04:12:32;28.03;;;12.70;;
49840;SDS011;35738;49.890;5.930;2024-01-16T04:14:58;26.63;;;11.80;;
49840;SDS011;35738;49.890;5.930;2024-01-16T04:17:25;27.37;;;13.47;;
49840;SDS011;35738;49.890;5.930;2024-01-16T04:19:52;34.50;;;14.23;;
49840;SDS011;35738;49.890;5.930;2024-01-16T04:22:18;27.33;;;13.23;;
49840;SDS011;35738;49.890;5.930;2024-01-16T04:24:45;22.00;;;11.63;;
49840;SDS011;35738;49.890;5.930;2024-01-16T04:27:11;27.70;;;13.27;;
49840;SDS011;35738;49.890;5.930;2024-01-16T04:29:38;32.23;;;12.17;;
49840;SDS011;35738;49.890;5.930;2024-01-16T04:32:05;26.40;;;11.00;;
49840;SDS011;35738;49.890;5.930;2024-01-16T04:34:31;27.77;;;11.17;;
49840;SDS011;35738;49.890;5.930;2024-01-16T04:36:58;29.73;;;12.13;;
49840;SDS011;35738;49.890;5.930;2024-01-16T04:39:25;32.30;;;12.90;;
49840;SDS011;35738;49.890;5.930;2024-01-16T04:41:51;25.17;;;11.13;;
49840;SDS011;35738;49.890;5.930;2024-01-16T04:44:17;31.47;;;11.73;;
49840;SDS011;35738;49.890;5.930;2024-01-16T04:46:44;28.23;;;12.00;;
49840;SDS011;35738;49.890;5.930;2024-01-16T04:49:10;28.23;;;10.73;;
49840;SDS011;35738;49.890;5.930;2024-01-16T04:51:37;29.57;;;10.73;;
49840;SDS011;35738;49.890;5.930;2024-01-16T04:54:04;24.43;;;9.50;;
49840;SDS011;35738;49.890;5.930;2024-01-16T04:56:30;20.53;;;10.00;;
49840;SDS011;35738;49.890;5.930;2024-01-16T04:58:58;19.60;;;9.13;;
49840;SDS011;35738;49.890;5.930;2024-01-16T05:01:24;22.50;;;11.40;;
49840;SDS011;35738;49.890;5.930;2024-01-16T05:03:51;25.00;;;9.07;;
49840;SDS011;35738;49.890;5.930;2024-01-16T05:06:18;23.30;;;9.77;;
49840;SDS011;35738;49.890;5.930;2024-01-16T05:08:44;24.10;;;10.00;;
49840;SDS011;35738;49.890;5.930;2024-01-16T05:11:11;21.83;;;9.20;;
49840;SDS011;35738;49.890;5.930;2024-01-16T05:13:38;24.70;;;9.63;;
49840;SDS011;35738;49.890;5.930;2024-01-16T05:16:05;25.87;;;8.90;;
49840;SDS011;35738;49.890;5.930;2024-01-16T05:18:32;21.93;;;9.17;;
49840;SDS011;35738;49.890;5.930;2024-01-16T05:21:01;24.97;;;10.07;;
49840;SDS011;35738;49.890;5.930;2024-01-16T05:23:28;20.87;;;10.00;;
49840;SDS011;35738;49.890;5.930;2024-01-16T05:25:55;23.17;;;8.63;;
49840;SDS011;35738;49.890;5.930;2024-01-16T05:28:22;23.67;;;9.00;;
49840;SDS011;35738;49.890;5.930;2024-01-16T05:30:48;24.13;;;9.60;;
49840;SDS011;35738;49.890;5.930;2024-01-16T05:33:15;25.00;;;9.50;;
49840;SDS011;35738;49.890;5.930;2024-01-16T05:35:42;24.80;;;9.10;;
49840;SDS011;35738;49.890;5.930;2024-01-16T05:38:09;27.20;;;9.70;;
49840;SDS011;35738;49.890;5.930;2024-01-16T05:40:38;24.63;;;10.00;;
49840;SDS011;35738;49.890;5.930;2024-01-16T05:43:06;20.57;;;8.77;;
49840;SDS011;35738;49.890;5.930;2024-01-16T05:45:32;25.23;;;9.70;;
49840;SDS011;35738;49.890;5.930;2024-01-16T05:47:59;20.17;;;9.20;;
49840;SDS011;35738;49.890;5.930;2024-01-16T05:50:25;26.37;;;8.87;;
49840;SDS011;35738;49.890;5.930;2024-01-16T05:52:52;16.17;;;8.17;;
49840;SDS011;35738;49.890;5.930;2024-01-16T05:55:19;19.20;;;8.33;;
49840;SDS011;35738;49.890;5.930;2024-01-16T05:57:47;17.63;;;9.10;;
49840;SDS011;35738;49.890;5.930;2024-01-16T06:00:14;16.33;;;8.43;;
49840;SDS011;35738;49.890;5.930;2024-01-16T06:02:43;16.47;;;8.97;;
49840;SDS011;35738;49.890;5.930;2024-01-16T06:05:11;22.80;;;8.43;;
49840;SDS011;35738;49.890;5.930;2024-01-16T06:07:38;21.63;;;8.20;;
49840;SDS011;35738;49.890;5.930;2024-01-16T06:10:04;20.27;;;7.93;;
49840;SDS011;35738;49.890;5.930;2024-01-16T06:12:32;20.80;;;8.80;;
49840;SDS011;35738;49.890;5.930;2024-01-16T06:14:59;22.40;;;8.80;;
49840;SDS011;35738;49.890;5.930;2024-01-16T06:17:25;21.87;;;8.27;;
49840;SDS011;35738;49.890;5.930;2024-01-16T06:19:52;18.87;;;8.10;;
49840;SDS011;35738;49.890;5.930;2024-01-16T06:22:18;19.17;;;8.10;;
49840;SDS011;35738;49.890;5.930;2024-01-16T06:24:45;20.77;;;8.43;;
49840;SDS011;35738;49.890;5.930;2024-01-16T06:27:11;26.93;;;9.87;;
49840;SDS011;35738;49.890;5.930;2024-01-16T06:29:45;18.47;;;8.20;;
49840;SDS011;35738;49.890;5.930;2024-01-16T06:32:12;17.40;;;7.03;;
49840;SDS011;35738;49.890;5.930;2024-01-16T06:34:38;19.27;;;7.47;;
49840;SDS011;35738;49.890;5.930;2024-01-16T06:37:05;14.53;;;6.93;;
49840;SDS011;35738;49.890;5.930;2024-01-16T06:39:32;17.10;;;6.87;;
49840;SDS011;35738;49.890;5.930;2024-01-16T06:41:59;15.80;;;5.83;;
49840;SDS011;35738;49.890;5.930;2024-01-16T06:44:26;10.83;;;5.60;;
49840;SDS011;35738;49.890;5.930;2024-01-16T06:46:53;10.47;;;5.17;;
49840;SDS011;35738;49.890;5.930;2024-01-16T06:49:19;14.67;;;5.50;;
49840;SDS011;35738;49.890;5.930;2024-01-16T06:51:46;12.70;;;5.20;;
49840;SDS011;35738;49.890;5.930;2024-01-16T06:54:12;14.70;;;5.00;;
49840;SDS011;35738;49.890;5.930;2024-01-16T06:56:39;14.07;;;5.60;;
49840;SDS011;35738;49.890;5.930;2024-01-16T06:59:05;13.90;;;5.67;;
49840;SDS011;35738;49.890;5.930;2024-01-16T07:01:37;17.13;;;6.03;;
49840;SDS011;35738;49.890;5.930;2024-01-16T07:04:03;19.67;;;5.30;;
49840;SDS011;35738;49.890;5.930;2024-01-16T07:06:30;10.20;;;5.57;;
49840;SDS011;35738;49.890;5.930;2024-01-16T07:08:56;14.03;;;5.37;;
49840;SDS011;35738;49.890;5.930;2024-01-16T07:11:23;17.23;;;5.53;;
49840;SDS011;35738;49.890;5.930;2024-01-16T07:13:50;14.10;;;5.33;;
49840;SDS011;35738;49.890;5.930;2024-01-16T07:16:17;12.97;;;5.17;;
49840;SDS011;35738;49.890;5.930;2024-01-16T07:18:43;13.40;;;5.23;;
49840;SDS011;35738;49.890;5.930;2024-01-16T07:21:17;19.77;;;5.47;;
49840;SDS011;35738;49.890;5.930;2024-01-16T07:23:44;13.77;;;5.53;;
49840;SDS011;35738;49.890;5.930;2024-01-16T07:26:11;16.50;;;5.97;;
49840;SDS011;35738;49.890;5.930;2024-01-16T07:28:38;21.40;;;6.47;;
49840;SDS011;35738;49.890;5.930;2024-01-16T07:31:04;13.70;;;5.80;;
49840;SDS011;35738;49.890;5.930;2024-01-16T07:33:32;20.17;;;7.30;;
49840;SDS011;35738;49.890;5.930;2024-01-16T07:35:59;13.90;;;6.00;;
49840;SDS011;35738;49.890;5.930;2024-01-16T07:38:25;22.23;;;7.53;;
49840;SDS011;35738;49.890;5.930;2024-01-16T07:40:52;17.97;;;6.50;;
49840;SDS011;35738;49.890;5.930;2024-01-16T07:43:18;14.80;;;7.00;;
49840;SDS011;35738;49.890;5.930;2024-01-16T07:45:45;19.83;;;7.60;;
49840;SDS011;35738;49.890;5.930;2024-01-16T07:48:12;17.93;;;7.40;;
49840;SDS011;35738;49.890;5.930;2024-01-16T07:50:38;19.57;;;7.43;;
49840;SDS011;35738;49.890;5.930;2024-01-16T07:53:05;17.00;;;7.17;;
49840;SDS011;35738;49.890;5.930;2024-01-16T07:55:32;16.20;;;6.97;;
49840;SDS011;35738;49.890;5.930;2024-01-16T07:57:58;14.87;;;6.97;;
49840;SDS011;35738;49.890;5.930;2024-01-16T08:00:25;22.33;;;7.07;;
49840;SDS011;35738;49.890;5.930;2024-01-16T08:02:53;15.47;;;7.20;;
49840;SDS011;35738;49.890;5.930;2024-01-16T08:05:20;19.27;;;7.57;;
49840;SDS011;35738;49.890;5.930;2024-01-16T08:07:48;16.77;;;6.73;;
49840;SDS011;35738;49.890;5.930;2024-01-16T08:10:14;15.40;;;6.87;;
49840;SDS011;35738;49.890;5.930;2024-01-16T08:12:45;17.73;;;7.23;;
49840;SDS011;35738;49.890;5.930;2024-01-16T08:15:12;16.27;;;7.27;;
49840;SDS011;35738;49.890;5.930;2024-01-16T08:17:38;20.60;;;7.50;;
49840;SDS011;35738;49.890;5.930;2024-01-16T08:20:06;18.30;;;8.10;;
49840;SDS011;35738;49.890;5.930;2024-01-16T08:22:36;22.20;;;8.10;;
49840;SDS011;35738;49.890;5.930;2024-01-16T08:25:03;24.27;;;9.13;;
49840;SDS011;35738;49.890;5.930;2024-01-16T08:27:31;23.67;;;8.87;;
49840;SDS011;35738;49.890;5.930;2024-01-16T08:29:58;26.70;;;9.37;;
49840;SDS011;35738;49.890;5.930;2024-01-16T08:32:24;20.37;;;8.83;;
49840;SDS011;35738;49.890;5.930;2024-01-16T08:34:51;18.80;;;8.63;;
49840;SDS011;35738;49.890;5.930;2024-01-16T08:37:17;25.60;;;9.20;;
49840;SDS011;35738;49.890;5.930;2024-01-16T08:39:44;22.27;;;9.87;;
49840;SDS011;35738;49.890;5.930;2024-01-16T08:42:10;18.43;;;9.60;;
49840;SDS011;35738;49.890;5.930;2024-01-16T08:44:38;23.87;;;9.97;;
49840;SDS011;35738;49.890;5.930;2024-01-16T08:47:05;21.67;;;10.37;;
49840;SDS011;35738;49.890;5.930;2024-01-16T08:49:32;23.47;;;10.53;;
49840;SDS011;35738;49.890;5.930;2024-01-16T08:51:59;23.33;;;10.23;;
49840;SDS011;35738;49.890;5.930;2024-01-16T08:54:26;28.00;;;9.77;;
49840;SDS011;35738;49.890;5.930;2024-01-16T08:56:52;23.47;;;9.63;;
49840;SDS011;35738;49.890;5.930;2024-01-16T08:59:19;23.93;;;9.87;;
49840;SDS011;35738;49.890;5.930;2024-01-16T09:01:45;20.70;;;9.60;;
49840;SDS011;35738;49.890;5.930;2024-01-16T09:04:12;26.77;;;10.47;;
49840;SDS011;35738;49.890;5.930;2024-01-16T09:06:38;20.03;;;9.30;;
49840;SDS011;35738;49.890;5.930;2024-01-16T09:09:05;21.77;;;11.50;;
49840;SDS011;35738;49.890;5.930;2024-01-16T09:11:32;29.20;;;12.10;;
49840;SDS011;35738;49.890;5.930;2024-01-16T09:13:58;27.43;;;10.97;;
49840;SDS011;35738;49.890;5.930;2024-01-16T09:16:29;25.53;;;11.10;;
49840;SDS011;35738;49.890;5.930;2024-01-16T09:18:56;32.37;;;12.47;;
49840;SDS011;35738;49.890;5.930;2024-01-16T09:21:23;24.37;;;11.00;;
49840;SDS011;35738;49.890;5.930;2024-01-16T09:23:49;25.67;;;12.07;;
49840;SDS011;35738;49.890;5.930;2024-01-16T09:26:16;26.40;;;12.03;;
49840;SDS011;35738;49.890;5.930;2024-01-16T09:28:43;30.23;;;11.80;;
49840;SDS011;35738;49.890;5.930;2024-01-16T09:31:10;27.83;;;12.30;;
49840;SDS011;35738;49.890;5.930;2024-01-16T09:33:37;22.77;;;11.63;;
49840;SDS011;35738;49.890;5.930;2024-01-16T09:36:03;25.53;;;12.17;;
49840;SDS011;35738;49.890;5.930;2024-01-16T09:38:30;28.87;;;14.20;;
49840;SDS011;35738;49.890;5.930;2024-01-16T09:40:57;26.40;;;12.57;;
49840;SDS011;35738;49.890;5.930;2024-01-16T09:43:26;26.17;;;11.20;;
49840;SDS011;35738;49.890;5.930;2024-01-16T09:45:54;27.23;;;11.90;;
49840;SDS011;35738;49.890;5.930;2024-01-16T09:48:25;24.80;;;11.87;;
49840;SDS011;35738;49.890;5.930;2024-01-16T09:50:53;23.60;;;9.53;;
49840;SDS011;35738;49.890;5.930;2024-01-16T09:53:20;27.40;;;10.07;;
49840;SDS011;35738;49.890;5.930;2024-01-16T09:55:47;29.43;;;10.10;;
49840;SDS011;35738;49.890;5.930;2024-01-16T09:58:18;27.77;;;12.03;;
49840;SDS011;35738;49.890;5.930;2024-01-16T10:00:51;23.37;;;10.03;;
49840;SDS011;35738;49.890;5.930;2024-01-16T10:03:18;21.43;;;9.30;;
49840;SDS011;35738;49.890;5.930;2024-01-16T10:05:45;19.13;;;8.63;;
49840;SDS011;35738;49.890;5.930;2024-01-16T10:08:15;23.43;;;9.10;;
49840;SDS011;35738;49.890;5.930;2024-01-16T10:10:42;24.13;;;9.17;;
49840;SDS011;35738;49.890;5.930;2024-01-16T10:13:15;14.47;;;8.10;;
49840;SDS011;35738;49.890;5.930;2024-01-16T10:15:43;23.53;;;9.90;;
49840;SDS011;35738;49.890;5.930;2024-01-16T10:18:23;15.30;;;7.60;;
49840;SDS011;35738;49.890;5.930;2024-01-16T10:20:51;19.30;;;8.63;;
49840;SDS011;35738;49.890;5.930;2024-01-16T10:23:23;20.53;;;8.17;;
49840;SDS011;35738;49.890;5.930;2024-01-16T10:26:06;22.50;;;7.80;;
49840;SDS011;35738;49.890;5.930;2024-01-16T10:28:34;18.53;;;8.57;;
49840;SDS011;35738;49.890;5.930;2024-01-16T10:31:02;21.50;;;8.93;;
49840;SDS011;35738;49.890;5.930;2024-01-16T10:33:30;15.80;;;6.97;;
49840;SDS011;35738;49.890;5.930;2024-01-16T10:36:13;16.23;;;8.23;;
49840;SDS011;35738;49.890;5.930;2024-01-16T10:38:45;15.60;;;5.90;;
49840;SDS011;35738;49.890;5.930;2024-01-16T10:41:15;19.53;;;7.67;;
49840;SDS011;35738;49.890;5.930;2024-01-16T10:44:03;15.63;;;6.63;;
49840;SDS011;35738;49.890;5.930;2024-01-16T10:46:33;18.77;;;7.50;;
49840;SDS011;35738;49.890;5.930;2024-01-16T10:49:00;16.17;;;7.67;;
49840;SDS011;35738;49.890;5.930;2024-01-16T10:51:29;15.07;;;7.20;;
49840;SDS011;35738;49.890;5.930;2024-01-16T10:54:00;15.20;;;7.57;;
49840;SDS011;35738;49.890;5.930;2024-01-16T10:56:29;19.17;;;7.20;;
49840;SDS011;35738;49.890;5.930;2024-01-16T11:01:45;16.33;;;5.80;;
49840;SDS011;35738;49.890;5.930;2024-01-16T11:04:16;15.27;;;6.10;;
49840;SDS011;35738;49.890;5.930;2024-01-16T11:06:44;11.93;;;6.33;;
49840;SDS011;35738;49.890;5.930;2024-01-16T11:09:12;14.50;;;6.47;;
49840;SDS011;35738;49.890;5.930;2024-01-16T11:11:43;14.87;;;5.53;;
49840;SDS011;35738;49.890;5.930;2024-01-16T11:14:15;12.10;;;5.63;;
49840;SDS011;35738;49.890;5.930;2024-01-16T11:16:42;15.03;;;4.33;;
49840;SDS011;35738;49.890;5.930;2024-01-16T11:19:13;12.77;;;4.80;;
49840;SDS011;35738;49.890;5.930;2024-01-16T11:22:00;9.37;;;4.53;;
49840;SDS011;35738;49.890;5.930;2024-01-16T11:24:29;12.80;;;5.43;;
49840;SDS011;35738;49.890;5.930;2024-01-16T11:26:56;11.97;;;4.67;;
49840;SDS011;35738;49.890;5.930;2024-01-16T11:31:53;11.60;;;4.90;;
49840;SDS011;35738;49.890;5.930;2024-01-16T11:37:15;14.37;;;4.70;;
49840;SDS011;35738;49.890;5.930;2024-01-16T11:39:54;10.73;;;4.13;;
49840;SDS011;35738;49.890;5.930;2024-01-16T11:42:40;13.83;;;4.87;;
49840;SDS011;35738;49.890;5.930;2024-01-16T11:48:13;10.23;;;4.03;;
49840;SDS011;35738;49.890;5.930;2024-01-16T11:50:41;8.93;;;4.33;;
49840;SDS011;35738;49.890;5.930;2024-01-16T11:53:08;7.57;;;3.83;;
49840;SDS011;35738;49.890;5.930;2024-01-16T11:55:37;5.97;;;3.90;;
49840;SDS011;35738;49.890;5.930;2024-01-16T11:58:25;10.30;;;4.23;;
49840;SDS011;35738;49.890;5.930;2024-01-16T12:01:17;13.10;;;4.37;;
49840;SDS011;35738;49.890;5.930;2024-01-16T12:03:46;11.37;;;5.33;;
49840;SDS011;35738;49.890;5.930;2024-01-16T12:06:15;7.00;;;3.93;;
49840;SDS011;35738;49.890;5.930;2024-01-16T12:08:42;11.17;;;5.00;;
49840;SDS011;35738;49.890;5.930;2024-01-16T12:11:09;11.30;;;4.87;;
49840;SDS011;35738;49.890;5.930;2024-01-16T12:13:35;12.87;;;4.33;;
49840;SDS011;35738;49.890;5.930;2024-01-16T12:16:02;10.17;;;5.10;;
49840;SDS011;35738;49.890;5.930;2024-01-16T12:18:30;12.80;;;4.40;;
49840;SDS011;35738;49.890;5.930;2024-01-16T12:21:10;10.83;;;5.50;;
49840;SDS011;35738;49.890;5.930;2024-01-16T12:23:37;8.93;;;5.00;;
49840;SDS011;35738;49.890;5.930;2024-01-16T12:26:19;21.10;;;5.40;;
49840;SDS011;35738;49.890;5.930;2024-01-16T12:28:50;15.90;;;6.17;;
49840;SDS011;35738;49.890;5.930;2024-01-16T12:31:20;13.73;;;5.97;;
49840;SDS011;35738;49.890;5.930;2024-01-16T12:33:46;12.10;;;6.47;;
49840;SDS011;35738;49.890;5.930;2024-01-16T12:36:26;14.23;;;5.40;;
49840;SDS011;35738;49.890;5.930;2024-01-16T12:38:56;11.57;;;5.07;;
49840;SDS011;35738;49.890;5.930;2024-01-16T12:41:23;10.43;;;4.30;;
49840;SDS011;35738;49.890;5.930;2024-01-16T12:44:04;12.17;;;4.80;;
49840;SDS011;35738;49.890;5.930;2024-01-16T12:46:41;10.70;;;4.73;;
49840;SDS011;35738;49.890;5.930;2024-01-16T12:49:07;8.57;;;4.50;;
49840;SDS011;35738;49.890;5.930;2024-01-16T12:51:38;11.40;;;5.17;;
49840;SDS011;35738;49.890;5.930;2024-01-16T12:54:12;12.57;;;4.73;;
49840;SDS011;35738;49.890;5.930;2024-01-16T12:56:44;7.47;;;4.50;;
49840;SDS011;35738;49.890;5.930;2024-01-16T12:59:11;8.40;;;4.33;;
49840;SDS011;35738;49.890;5.930;2024-01-16T13:01:39;8.17;;;4.73;;
49840;SDS011;35738;49.890;5.930;2024-01-16T13:04:10;10.90;;;4.33;;
49840;SDS011;35738;49.890;5.930;2024-01-16T13:06:38;8.73;;;4.63;;
49840;SDS011;35738;49.890;5.930;2024-01-16T13:09:06;10.40;;;4.43;;
49840;SDS011;35738;49.890;5.930;2024-01-16T13:12:18;9.47;;;4.27;;
49840;SDS011;35738;49.890;5.930;2024-01-16T13:14:31;12.23;;;4.33;;
49840;SDS011;35738;49.890;5.930;2024-01-16T13:16:57;7.80;;;3.80;;
49840;SDS011;35738;49.890;5.930;2024-01-16T13:19:24;7.60;;;4.07;;
49840;SDS011;35738;49.890;5.930;2024-01-16T13:21:51;14.50;;;4.60;;
49840;SDS011;35738;49.890;5.930;2024-01-16T13:24:17;8.50;;;4.63;;
49840;SDS011;35738;49.890;5.930;2024-01-16T13:26:48;9.67;;;4.47;;
49840;SDS011;35738;49.890;5.930;2024-01-16T13:29:14;8.23;;;4.70;;
49840;SDS011;35738;49.890;5.930;2024-01-16T13:31:42;8.23;;;3.90;;
49840;SDS011;35738;49.890;5.930;2024-01-16T13:34:09;8.10;;;3.73;;
49840;SDS011;35738;49.890;5.930;2024-01-16T13:36:36;7.93;;;4.40;;
49840;SDS011;35738;49.890;5.930;2024-01-16T13:39:06;8.87;;;3.63;;
49840;SDS011;35738;49.890;5.930;2024-01-16T13:41:39;9.20;;;3.90;;
49840;SDS011;35738;49.890;5.930;2024-01-16T13:44:05;8.63;;;4.10;;
49840;SDS011;35738;49.890;5.930;2024-01-16T13:46:32;6.60;;;3.93;;
49840;SDS011;35738;49.890;5.930;2024-01-16T13:49:19;7.63;;;4.10;;
49840;SDS011;35738;49.890;5.930;2024-01-16T13:51:46;8.27;;;4.40;;
49840;SDS011;35738;49.890;5.930;2024-01-16T13:54:12;8.33;;;4.30;;
49840;SDS011;35738;49.890;5.930;2024-01-16T13:56:39;9.87;;;4.50;;
49840;SDS011;35738;49.890;5.930;2024-01-16T13:59:26;11.07;;;4.73;;
49840;SDS011;35738;49.890;5.930;2024-01-16T14:01:52;6.27;;;4.17;;
49840;SDS011;35738;49.890;5.930;2024-01-16T14:04:18;8.20;;;4.63;;
49840;SDS011;35738;49.890;5.930;2024-01-16T14:06:46;8.93;;;4.70;;
49840;SDS011;35738;49.890;5.930;2024-01-16T14:09:33;8.03;;;4.70;;
49840;SDS011;35738;49.890;5.930;2024-01-16T14:12:01;11.00;;;5.07;;
49840;SDS011;35738;49.890;5.930;2024-01-16T14:14:28;11.63;;;6.00;;
49840;SDS011;35738;49.890;5.930;2024-01-16T14:16:54;19.73;;;7.97;;
49840;SDS011;35738;49.890;5.930;2024-01-16T14:19:27;8.97;;;4.40;;
49840;SDS011;35738;49.890;5.930;2024-01-16T14:21:56;7.53;;;4.30;;
49840;SDS011;35738;49.890;5.930;2024-01-16T14:24:22;8.60;;;4.03;;
49840;SDS011;35738;49.890;5.930;2024-01-16T14:26:49;8.23;;;3.90;;
49840;SDS011;35738;49.890;5.930;2024-01-16T14:29:15;7.47;;;3.97;;
49840;SDS011;35738;49.890;5.930;2024-01-16T14:31:42;13.70;;;4.23;;
49840;SDS011;35738;49.890;5.930;2024-01-16T14:34:12;7.97;;;4.07;;
49840;SDS011;35738;49.890;5.930;2024-01-16T14:36:42;8.57;;;3.90;;
49840;SDS011;35738;49.890;5.930;2024-01-16T14:39:08;10.63;;;3.70;;
49840;SDS011;35738;49.890;5.930;2024-01-16T14:41:44;8.33;;;3.70;;
49840;SDS011;35738;49.890;5.930;2024-01-16T14:44:11;8.80;;;4.20;;
49840;SDS011;35738;49.890;5.930;2024-01-16T14:46:40;8.80;;;4.40;;
49840;SDS011;35738;49.890;5.930;2024-01-16T14:49:12;5.57;;;4.07;;